createdAt,value
2023-11-25T00:00:41.649Z,984.04
2023-11-25T00:01:43.298Z,984.07
2023-11-25T00:02:44.982Z,984.07
2023-11-25T00:03:46.717Z,984.09
2023-11-25T00:04:48.423Z,984.04
2023-11-25T00:05:50.537Z,984.13
2023-11-25T00:06:51.916Z,984.13
2023-11-25T00:07:53.639Z,984.12
2023-11-25T00:08:55.383Z,984.21
2023-11-25T00:09:57.132Z,984.24
2023-11-25T00:10:58.816Z,984.25
2023-11-25T00:12:00.558Z,984.27
2023-11-25T00:13:02.529Z,984.32
2023-11-25T00:14:04.031Z,984.38
2023-11-25T00:15:05.776Z,984.44
2023-11-25T00:16:07.673Z,984.44
2023-11-25T00:17:09.260Z,984.41
2023-11-25T00:18:11.032Z,984.48
2023-11-25T00:19:12.817Z,984.53
2023-11-25T00:20:14.438Z,984.55
2023-11-25T00:21:16.163Z,984.52
2023-11-25T00:22:17.995Z,984.63
2023-11-25T00:23:19.634Z,984.61
2023-11-25T00:24:21.355Z,984.65
2023-11-25T00:25:23.137Z,984.61
2023-11-25T00:26:24.894Z,984.6
2023-11-25T00:27:26.686Z,984.66
2023-11-25T00:28:28.356Z,984.68
2023-11-25T00:29:30.020Z,984.74
2023-11-25T00:30:31.893Z,984.69
2023-11-25T00:31:33.636Z,984.68
2023-11-25T00:32:35.272Z,984.68
2023-11-25T00:33:36.973Z,984.65
2023-11-25T00:34:38.725Z,984.63
2023-11-25T00:35:40.422Z,984.68
2023-11-25T00:36:42.377Z,984.68
2023-11-25T00:37:46.595Z,984.71
2023-11-25T00:38:47.906Z,984.69
2023-11-25T00:39:48.726Z,984.71
2023-11-25T00:40:51.754Z,984.74
2023-11-25T00:41:53.423Z,984.8
2023-11-25T00:43:04.213Z,984.82
2023-11-25T00:44:43.764Z,984.79
2023-11-25T00:45:58.562Z,984.82
2023-11-25T00:47:34.201Z,984.8
2023-11-25T00:49:19.348Z,984.86
2023-11-25T00:50:20.346Z,984.9
2023-11-25T00:51:21.962Z,984.83
2023-11-25T00:52:23.689Z,984.86
2023-11-25T00:53:25.442Z,984.93
2023-11-25T00:54:27.126Z,984.93
2023-11-25T00:55:28.941Z,984.95
2023-11-25T00:56:30.770Z,984.93
2023-11-25T00:57:32.423Z,984.93
2023-11-25T00:58:34.222Z,984.91
2023-11-25T00:59:35.790Z,984.86
2023-11-25T01:00:37.676Z,984.82
2023-11-25T01:01:39.386Z,984.89
2023-11-25T01:02:41.172Z,984.91
2023-11-25T01:03:42.901Z,984.91
2023-11-25T01:04:44.713Z,984.91
2023-11-25T01:05:46.206Z,984.91
2023-11-25T01:06:47.937Z,984.93
2023-11-25T01:07:49.676Z,984.99
2023-11-25T01:08:51.417Z,984.98
2023-11-25T01:09:53.127Z,985
2023-11-25T01:10:55.079Z,984.99
2023-11-25T01:11:56.637Z,984.98
2023-11-25T01:12:58.336Z,985.04
2023-11-25T01:14:00.127Z,984.98
2023-11-25T01:15:01.795Z,984.98
2023-11-25T01:16:03.656Z,984.99
2023-11-25T01:17:05.297Z,984.94
2023-11-25T01:18:07.101Z,985.04
2023-11-25T01:19:08.778Z,985.05
2023-11-25T01:20:10.452Z,985.07
2023-11-25T01:21:12.201Z,985.06
2023-11-25T01:22:14.152Z,985.11
2023-11-25T01:23:15.656Z,985.06
2023-11-25T01:24:17.409Z,985.06
2023-11-25T01:25:19.166Z,985.1
2023-11-25T01:26:20.878Z,985.13
2023-11-25T01:27:22.675Z,985.09
2023-11-25T01:28:24.351Z,985.17
2023-11-25T01:29:26.078Z,985.21
2023-11-25T01:30:27.779Z,985.25
2023-11-25T01:31:29.543Z,985.22
2023-11-25T01:32:31.305Z,985.19
2023-11-25T01:33:33.092Z,985.17
2023-11-25T01:34:34.860Z,985.18
2023-11-25T01:35:36.445Z,985.28
2023-11-25T01:36:38.195Z,985.2
2023-11-25T01:37:40.208Z,985.26
2023-11-25T01:38:41.646Z,985.24
2023-11-25T01:39:43.401Z,985.29
2023-11-25T01:40:45.180Z,985.3
2023-11-25T01:41:46.852Z,985.27
2023-11-25T01:42:48.586Z,985.28
2023-11-25T01:43:50.296Z,985.26
2023-11-25T01:44:52.072Z,985.32
2023-11-25T01:45:53.792Z,985.34
2023-11-25T01:46:55.538Z,985.35
2023-11-25T01:47:57.266Z,985.35
2023-11-25T01:48:58.975Z,985.39
2023-11-25T01:50:00.732Z,985.4
2023-11-25T01:51:02.436Z,985.46
2023-11-25T01:52:04.314Z,985.48
2023-11-25T01:53:05.907Z,985.49
2023-11-25T01:54:07.801Z,985.51
2023-11-25T01:55:09.831Z,985.54
2023-11-25T01:56:11.125Z,985.6
2023-11-25T01:57:13.229Z,985.6
2023-11-25T01:58:14.618Z,985.6
2023-11-25T01:59:16.322Z,985.62
2023-11-25T02:00:18.071Z,985.63
2023-11-25T02:01:19.793Z,985.63
2023-11-25T02:02:21.641Z,985.68
2023-11-25T02:03:23.353Z,985.67
2023-11-25T02:04:25.161Z,985.69
2023-11-25T02:05:26.736Z,985.67
2023-11-25T02:06:28.480Z,985.74
2023-11-25T02:07:30.309Z,985.71
2023-11-25T02:08:31.905Z,985.78
2023-11-25T02:09:33.636Z,985.74
2023-11-25T02:10:35.430Z,985.78
2023-11-25T02:11:37.106Z,985.74
2023-11-25T02:12:38.847Z,985.8
2023-11-25T02:14:05.832Z,985.79
2023-11-25T02:15:12.976Z,985.88
2023-11-25T02:16:12.812Z,985.8
2023-11-25T02:17:32.521Z,985.82
2023-11-25T02:18:40.399Z,985.84
2023-11-25T02:19:43.267Z,985.86
2023-11-25T02:21:01.921Z,985.86
2023-11-25T02:22:41.305Z,985.86
2023-11-25T02:23:50.432Z,985.91
2023-11-25T02:25:10.159Z,985.81
2023-11-25T02:26:18.910Z,985.89
2023-11-25T02:27:25.394Z,985.84
2023-11-25T02:28:26.626Z,985.86
2023-11-25T02:29:30.879Z,985.79
2023-11-25T02:30:36.028Z,985.85
2023-11-25T02:31:37.888Z,985.86
2023-11-25T02:32:39.563Z,985.77
2023-11-25T02:33:41.469Z,985.8
2023-11-25T02:34:42.987Z,985.84
2023-11-25T02:35:44.753Z,985.86
2023-11-25T02:36:46.402Z,985.84
2023-11-25T02:37:48.125Z,985.95
2023-11-25T02:38:49.865Z,985.88
2023-11-25T02:39:51.605Z,985.85
2023-11-25T02:40:53.344Z,985.85
2023-11-25T02:41:55.076Z,985.85
2023-11-25T02:42:57.007Z,985.89
2023-11-25T02:43:58.585Z,985.92
2023-11-25T02:45:00.250Z,985.81
2023-11-25T02:46:02.017Z,985.85
2023-11-25T02:47:03.848Z,985.77
2023-11-25T02:48:05.613Z,985.72
2023-11-25T02:49:07.248Z,985.73
2023-11-25T02:50:08.942Z,985.71
2023-11-25T02:51:10.659Z,985.7
2023-11-25T02:52:12.433Z,985.53
2023-11-25T02:53:14.115Z,985.68
2023-11-25T02:54:15.876Z,985.64
2023-11-25T02:55:17.695Z,985.64
2023-11-25T02:56:19.334Z,985.56
2023-11-25T02:57:21.056Z,985.61
2023-11-25T02:58:22.788Z,985.58
2023-11-25T02:59:24.513Z,985.59
2023-11-25T03:00:26.275Z,985.56
2023-11-25T03:01:28.056Z,985.59
2023-11-25T03:02:29.993Z,985.6
2023-11-25T03:03:31.496Z,985.61
2023-11-25T03:04:33.252Z,985.63
2023-11-25T03:05:34.958Z,985.55
2023-11-25T03:06:36.733Z,985.53
2023-11-25T03:07:38.470Z,985.66
2023-11-25T03:08:40.196Z,985.66
2023-11-25T03:09:41.885Z,985.55
2023-11-25T03:10:43.613Z,985.6
2023-11-25T03:11:45.336Z,985.58
2023-11-25T03:12:50.775Z,985.57
2023-11-25T03:13:48.814Z,985.56
2023-11-25T03:14:50.527Z,985.59
2023-11-25T03:15:52.253Z,985.57
2023-11-25T03:16:54.047Z,985.66
2023-11-25T03:17:55.789Z,985.66
2023-11-25T03:18:57.456Z,985.61
2023-11-25T03:19:59.183Z,985.64
2023-11-25T03:21:00.920Z,985.6
2023-11-25T03:22:02.665Z,985.67
2023-11-25T03:23:04.343Z,985.52
2023-11-25T03:24:06.127Z,985.66
2023-11-25T03:25:07.949Z,985.74
2023-11-25T03:26:09.639Z,985.74
2023-11-25T03:27:11.321Z,985.73
2023-11-25T03:28:13.066Z,985.77
2023-11-25T03:29:14.913Z,985.86
2023-11-25T03:30:16.524Z,985.86
2023-11-25T03:31:18.320Z,985.94
2023-11-25T03:32:20.036Z,986.03
2023-11-25T03:33:21.788Z,986.04
2023-11-25T03:34:23.490Z,986.09
2023-11-25T03:35:25.163Z,986.14
2023-11-25T03:36:26.920Z,986.12
2023-11-25T03:37:28.672Z,986.12
2023-11-25T03:38:30.365Z,986.22
2023-11-25T03:39:32.169Z,986.26
2023-11-25T03:40:33.944Z,986.21
2023-11-25T03:41:35.569Z,986.24
2023-11-25T03:42:37.330Z,986.29
2023-11-25T03:43:39.109Z,986.26
2023-11-25T03:44:40.831Z,986.27
2023-11-25T03:45:42.526Z,986.26
2023-11-25T03:46:44.449Z,986.23
2023-11-25T03:47:46.201Z,986.27
2023-11-25T03:48:47.713Z,986.3
2023-11-25T03:49:49.551Z,986.32
2023-11-25T03:50:51.184Z,986.27
2023-11-25T03:51:52.912Z,986.31
2023-11-25T03:52:54.641Z,986.32
2023-11-25T03:53:56.376Z,986.37
2023-11-25T03:54:58.103Z,986.36
2023-11-25T03:55:59.821Z,986.38
2023-11-25T03:57:01.604Z,986.34
2023-11-25T03:58:03.296Z,986.35
2023-11-25T03:59:05.044Z,986.35
2023-11-25T04:00:06.786Z,986.26
2023-11-25T04:01:08.541Z,986.28
2023-11-25T04:02:10.386Z,986.25
2023-11-25T04:03:12.032Z,986.3
2023-11-25T04:04:14.105Z,986.29
2023-11-25T04:05:15.436Z,986.31
2023-11-25T04:06:17.175Z,986.32
2023-11-25T04:07:18.953Z,986.35
2023-11-25T04:08:20.640Z,986.36
2023-11-25T04:09:22.365Z,986.39
2023-11-25T04:10:24.169Z,986.48
2023-11-25T04:11:25.855Z,986.52
2023-11-25T04:12:27.628Z,986.48
2023-11-25T04:13:29.420Z,986.53
2023-11-25T04:14:31.040Z,986.46
2023-11-25T04:15:32.776Z,986.5
2023-11-25T04:16:34.571Z,986.45
2023-11-25T04:17:36.369Z,986.49
2023-11-25T04:18:37.999Z,986.39
2023-11-25T04:19:39.823Z,986.42
2023-11-25T04:20:41.534Z,986.44
2023-11-25T04:21:44.371Z,986.39
2023-11-25T04:22:44.959Z,986.4
2023-11-25T04:23:46.696Z,986.47
2023-11-25T04:24:48.371Z,986.48
2023-11-25T04:25:50.308Z,986.48
2023-11-25T04:26:51.853Z,986.52
2023-11-25T04:27:53.566Z,986.47
2023-11-25T04:28:55.296Z,986.52
2023-11-25T04:29:57.050Z,986.55
2023-11-25T04:30:58.854Z,986.51
2023-11-25T04:32:00.752Z,986.5
2023-11-25T04:33:02.268Z,986.5
2023-11-25T04:34:03.968Z,986.57
2023-11-25T04:35:05.708Z,986.53
2023-11-25T04:36:07.425Z,986.51
2023-11-25T04:37:09.255Z,986.5
2023-11-25T04:38:10.882Z,986.53
2023-11-25T04:39:12.644Z,986.51
2023-11-25T04:40:14.420Z,986.58
2023-11-25T04:41:16.138Z,986.6
2023-11-25T04:42:17.838Z,986.53
2023-11-25T04:43:19.544Z,986.56
2023-11-25T04:44:21.314Z,986.56
2023-11-25T04:45:23.043Z,986.51
2023-11-25T04:46:24.832Z,986.55
2023-11-25T04:47:26.521Z,986.53
2023-11-25T04:48:28.250Z,986.53
2023-11-25T04:49:30.002Z,986.52
2023-11-25T04:50:31.686Z,986.51
2023-11-25T04:51:33.411Z,986.47
2023-11-25T04:52:35.185Z,986.49
2023-11-25T04:53:37.013Z,986.43
2023-11-25T04:54:38.619Z,986.5
2023-11-25T04:55:40.353Z,986.49
2023-11-25T04:56:42.100Z,986.51
2023-11-25T04:57:43.818Z,986.55
2023-11-25T04:58:45.628Z,986.53
2023-11-25T04:59:47.438Z,986.49
2023-11-25T05:00:49.087Z,986.52
2023-11-25T05:01:50.828Z,986.53
2023-11-25T05:02:52.475Z,986.58
2023-11-25T05:03:54.441Z,986.57
2023-11-25T05:04:56.091Z,986.57
2023-11-25T05:05:57.680Z,986.48
2023-11-25T05:06:59.428Z,986.56
2023-11-25T05:08:01.208Z,986.55
2023-11-25T05:09:02.951Z,986.55
2023-11-25T05:10:04.638Z,986.56
2023-11-25T05:11:06.348Z,986.6
2023-11-25T05:12:08.195Z,986.6
2023-11-25T05:13:09.857Z,986.6
2023-11-25T05:14:11.543Z,986.61
2023-11-25T05:15:13.500Z,986.63
2023-11-25T05:16:15.059Z,986.58
2023-11-25T05:17:16.827Z,986.6
2023-11-25T05:18:18.499Z,986.64
2023-11-25T05:19:20.310Z,986.66
2023-11-25T05:20:21.960Z,986.55
2023-11-25T05:21:23.683Z,986.5
2023-11-25T05:22:25.525Z,986.56
2023-11-25T05:23:27.166Z,986.38
2023-11-25T05:24:28.897Z,986.47
2023-11-25T05:25:30.647Z,986.46
2023-11-25T05:26:32.347Z,986.4
2023-11-25T05:27:34.102Z,986.38
2023-11-25T05:28:35.868Z,986.43
2023-11-25T05:29:37.550Z,986.43
2023-11-25T05:30:39.276Z,986.47
2023-11-25T05:31:41.083Z,986.44
2023-11-25T05:32:42.746Z,986.44
2023-11-25T05:33:44.601Z,986.41
2023-11-25T05:34:46.301Z,986.42
2023-11-25T05:35:48.022Z,986.44
2023-11-25T05:36:49.683Z,986.36
2023-11-25T05:37:51.457Z,986.41
2023-11-25T05:38:53.134Z,986.4
2023-11-25T05:39:54.856Z,986.43
2023-11-25T05:40:56.676Z,986.42
2023-11-25T05:41:58.344Z,986.35
2023-11-25T05:43:00.081Z,986.32
2023-11-25T05:44:01.808Z,986.38
2023-11-25T05:45:03.617Z,986.4
2023-11-25T05:46:05.344Z,986.4
2023-11-25T05:47:07.061Z,986.36
2023-11-25T05:48:09.038Z,986.41
2023-11-25T05:49:10.483Z,986.42
2023-11-25T05:50:12.189Z,986.44
2023-11-25T05:51:13.944Z,986.39
2023-11-25T05:52:15.710Z,986.41
2023-11-25T05:53:17.471Z,986.36
2023-11-25T05:54:19.142Z,986.41
2023-11-25T05:55:21.244Z,986.46
2023-11-25T05:56:22.618Z,986.4
2023-11-25T05:57:24.336Z,986.45
2023-11-25T05:58:26.143Z,986.48
2023-11-25T05:59:27.882Z,986.47
2023-11-25T06:00:29.593Z,986.45
2023-11-25T06:01:31.462Z,986.45
2023-11-25T06:02:33.026Z,986.43
2023-11-25T06:03:34.914Z,986.44
2023-11-25T06:04:36.701Z,986.5
2023-11-25T06:05:38.340Z,986.47
2023-11-25T06:06:39.958Z,986.46
2023-11-25T06:07:41.709Z,986.52
2023-11-25T06:08:43.423Z,986.5
2023-11-25T06:09:45.134Z,986.53
2023-11-25T06:10:48.476Z,986.52
2023-11-25T06:11:48.613Z,986.55
2023-11-25T06:12:50.357Z,986.54
2023-11-25T06:13:52.120Z,986.53
2023-11-25T06:14:53.799Z,986.44
2023-11-25T06:15:55.525Z,986.41
2023-11-25T06:16:57.293Z,986.36
2023-11-25T06:17:59.025Z,986.38
2023-11-25T06:19:00.740Z,986.45
2023-11-25T06:20:02.555Z,986.47
2023-11-25T06:21:04.198Z,986.43
2023-11-25T06:22:06.022Z,986.41
2023-11-25T06:23:07.702Z,986.5
2023-11-25T06:24:09.597Z,986.42
2023-11-25T06:25:11.174Z,986.42
2023-11-25T06:26:12.905Z,986.46
2023-11-25T06:27:14.592Z,986.46
2023-11-25T06:28:16.354Z,986.48
2023-11-25T06:29:18.045Z,986.51
2023-11-25T06:30:19.806Z,986.47
2023-11-25T06:31:21.582Z,986.53
2023-11-25T06:32:23.303Z,986.58
2023-11-25T06:33:25.122Z,986.54
2023-11-25T06:34:26.774Z,986.57
2023-11-25T06:35:28.469Z,986.59
2023-11-25T06:36:30.187Z,986.53
2023-11-25T06:37:32.022Z,986.52
2023-11-25T06:38:33.736Z,986.57
2023-11-25T06:39:35.628Z,986.54
2023-11-25T06:40:37.227Z,986.52
2023-11-25T06:41:38.858Z,986.5
2023-11-25T06:42:40.596Z,986.5
2023-11-25T06:43:42.343Z,986.57
2023-11-25T06:44:44.058Z,986.58
2023-11-25T06:45:45.788Z,986.53
2023-11-25T06:46:47.773Z,986.53
2023-11-25T06:47:49.279Z,986.61
2023-11-25T06:48:50.998Z,986.65
2023-11-25T06:49:52.857Z,986.66
2023-11-25T06:50:54.462Z,986.67
2023-11-25T06:51:56.190Z,986.67
2023-11-25T06:52:57.961Z,986.7
2023-11-25T06:53:59.662Z,986.71
2023-11-25T06:55:01.410Z,986.66
2023-11-25T06:56:03.167Z,986.62
2023-11-25T06:57:04.862Z,986.56
2023-11-25T06:58:07.859Z,986.56
2023-11-25T06:59:08.352Z,986.6
2023-11-25T07:00:10.186Z,986.61
2023-11-25T07:01:11.831Z,986.57
2023-11-25T07:02:13.628Z,986.63
2023-11-25T07:03:15.566Z,986.57
2023-11-25T07:04:17.051Z,986.54
2023-11-25T07:05:18.745Z,986.59
2023-11-25T07:06:20.458Z,986.65
2023-11-25T07:07:22.259Z,986.64
2023-11-25T07:08:24.072Z,986.54
2023-11-25T07:09:25.659Z,986.63
2023-11-25T07:10:27.406Z,986.64
2023-11-25T07:11:29.193Z,986.65
2023-11-25T07:12:30.862Z,986.63
2023-11-25T07:13:32.606Z,986.62
2023-11-25T07:14:34.330Z,986.66
2023-11-25T07:15:36.048Z,986.64
2023-11-25T07:16:37.888Z,986.64
2023-11-25T07:17:39.626Z,986.57
2023-11-25T07:18:41.269Z,986.63
2023-11-25T07:19:43.044Z,986.64
2023-11-25T07:20:44.806Z,986.62
2023-11-25T07:21:46.456Z,986.56
2023-11-25T07:22:48.197Z,986.59
2023-11-25T07:23:49.902Z,986.61
2023-11-25T07:24:51.659Z,986.59
2023-11-25T07:25:53.423Z,986.62
2023-11-25T07:26:55.166Z,986.7
2023-11-25T07:27:56.844Z,986.66
2023-11-25T07:28:58.595Z,986.72
2023-11-25T07:30:00.338Z,986.71
2023-11-25T07:31:02.093Z,986.72
2023-11-25T07:32:03.857Z,986.64
2023-11-25T07:33:05.679Z,986.63
2023-11-25T07:34:07.254Z,986.65
2023-11-25T07:35:09.096Z,986.65
2023-11-25T07:36:10.729Z,986.66
2023-11-25T07:37:12.451Z,986.65
2023-11-25T07:38:14.182Z,986.65
2023-11-25T07:39:15.964Z,986.63
2023-11-25T07:40:17.797Z,986.53
2023-11-25T07:41:19.395Z,986.6
2023-11-25T07:42:21.106Z,986.56
2023-11-25T07:43:22.937Z,986.62
2023-11-25T07:44:24.693Z,986.56
2023-11-25T07:45:26.313Z,986.56
2023-11-25T07:46:28.146Z,986.54
2023-11-25T07:47:29.991Z,986.62
2023-11-25T07:48:31.532Z,986.61
2023-11-25T07:49:33.301Z,986.55
2023-11-25T07:50:34.988Z,986.6
2023-11-25T07:51:36.702Z,986.59
2023-11-25T07:52:38.573Z,986.6
2023-11-25T07:53:40.186Z,986.64
2023-11-25T07:54:41.905Z,986.6
2023-11-25T07:55:43.687Z,986.58
2023-11-25T07:56:45.511Z,986.63
2023-11-25T07:57:47.177Z,986.5
2023-11-25T07:58:48.844Z,986.57
2023-11-25T07:59:50.575Z,986.59
2023-11-25T08:00:52.347Z,986.59
2023-11-25T08:01:54.108Z,986.59
2023-11-25T08:02:55.891Z,986.61
2023-11-25T08:03:57.534Z,986.54
2023-11-25T08:04:59.312Z,986.61
2023-11-25T08:06:00.963Z,986.57
2023-11-25T08:07:02.700Z,986.57
2023-11-25T08:08:04.548Z,986.59
2023-11-25T08:09:06.229Z,986.59
2023-11-25T08:10:07.896Z,986.57
2023-11-25T08:11:09.635Z,986.59
2023-11-25T08:12:11.369Z,986.57
2023-11-25T08:13:13.105Z,986.57
2023-11-25T08:14:14.849Z,986.5
2023-11-25T08:15:16.536Z,986.53
2023-11-25T08:16:18.336Z,986.51
2023-11-25T08:17:20.018Z,986.54
2023-11-25T08:18:21.792Z,986.59
2023-11-25T08:19:23.665Z,986.55
2023-11-25T08:20:25.249Z,986.53
2023-11-25T08:21:26.987Z,986.53
2023-11-25T08:22:28.747Z,986.51
2023-11-25T08:23:30.424Z,986.49
2023-11-25T08:24:32.145Z,986.47
2023-11-25T08:25:33.929Z,986.45
2023-11-25T08:26:35.874Z,986.49
2023-11-25T08:27:37.363Z,986.5
2023-11-25T08:28:39.227Z,986.47
2023-11-25T08:29:42.959Z,986.42
2023-11-25T08:30:42.561Z,986.51
2023-11-25T08:31:44.487Z,986.51
2023-11-25T08:32:46.168Z,986.5
2023-11-25T08:33:47.749Z,986.52
2023-11-25T08:34:49.551Z,986.46
2023-11-25T08:35:51.204Z,986.43
2023-11-25T08:36:52.947Z,986.44
2023-11-25T08:37:54.730Z,986.49
2023-11-25T08:38:56.428Z,986.47
2023-11-25T08:39:58.166Z,986.49
2023-11-25T08:40:59.985Z,986.47
2023-11-25T08:42:01.621Z,986.52
2023-11-25T08:43:03.348Z,986.46
2023-11-25T08:44:05.214Z,986.45
2023-11-25T08:45:06.819Z,986.36
2023-11-25T08:46:08.684Z,986.39
2023-11-25T08:47:10.246Z,986.42
2023-11-25T08:48:12.016Z,986.41
2023-11-25T08:49:13.928Z,986.35
2023-11-25T08:51:34.949Z,986.39
2023-11-25T08:52:35.048Z,986.38
2023-11-25T08:53:36.663Z,986.43
2023-11-25T08:54:38.523Z,986.36
2023-11-25T08:55:40.151Z,986.36
2023-11-25T08:56:41.988Z,986.39
2023-11-25T08:57:43.539Z,986.33
2023-11-25T08:58:45.366Z,986.35
2023-11-25T09:05:28.647Z,986.37
2023-11-25T09:06:30.315Z,986.37
2023-11-25T09:07:34.279Z,986.4
2023-11-25T09:13:03.374Z,986.48
2023-11-25T09:14:04.195Z,986.45
2023-11-25T09:15:05.834Z,986.44
2023-11-25T09:16:07.542Z,986.45
2023-11-25T09:17:09.284Z,986.45
2023-11-25T09:18:11.060Z,986.45
2023-11-25T09:19:12.730Z,986.53
2023-11-25T09:20:14.431Z,986.56
2023-11-25T09:21:16.139Z,986.57
2023-11-25T09:22:17.891Z,986.59
2023-11-25T09:23:19.589Z,986.6
2023-11-25T09:24:21.347Z,986.65
2023-11-25T09:25:23.171Z,986.64
2023-11-25T09:26:24.954Z,986.61
2023-11-25T09:27:26.826Z,986.67
2023-11-25T09:28:30.194Z,986.62
2023-11-25T09:29:29.937Z,986.67
2023-11-25T09:30:31.669Z,986.68
2023-11-25T09:31:33.495Z,986.69
2023-11-25T09:32:35.147Z,986.61
2023-11-25T09:33:36.878Z,986.66
2023-11-25T09:34:38.662Z,986.68
2023-11-25T09:35:40.310Z,986.69
2023-11-25T09:36:42.043Z,986.65
2023-11-25T09:37:43.800Z,986.67
2023-11-25T09:38:45.466Z,986.61
2023-11-25T09:39:47.199Z,986.57
2023-11-25T09:40:49.041Z,986.58
2023-11-25T09:41:50.634Z,986.56
2023-11-25T09:42:52.390Z,986.57
2023-11-25T09:43:54.116Z,986.57
2023-11-25T09:44:55.818Z,986.54
2023-11-25T09:45:57.580Z,986.55
2023-11-25T09:46:59.416Z,986.53
2023-11-25T09:48:01.235Z,986.55
2023-11-25T09:49:02.909Z,986.54
2023-11-25T09:50:04.576Z,986.57
2023-11-25T09:51:06.163Z,986.46
2023-11-25T09:52:07.880Z,986.46
2023-11-25T09:53:09.620Z,986.49
2023-11-25T09:54:11.418Z,986.46
2023-11-25T09:55:13.176Z,986.44
2023-11-25T09:56:14.785Z,986.42
2023-11-25T09:57:16.534Z,986.43
2023-11-25T09:58:18.237Z,986.45
2023-11-25T09:59:20.123Z,986.47
2023-11-25T10:00:21.708Z,986.46
2023-11-25T10:01:23.547Z,986.45
2023-11-25T10:02:25.354Z,986.41
2023-11-25T10:03:27.052Z,986.44
2023-11-25T10:04:28.638Z,986.42
2023-11-25T10:05:33.151Z,986.38
2023-11-25T10:06:32.172Z,986.33
2023-11-25T10:07:33.912Z,986.39
2023-11-25T10:08:35.523Z,986.38
2023-11-25T10:09:37.365Z,986.34
2023-11-25T10:10:39.100Z,986.31
2023-11-25T10:11:40.676Z,986.24
2023-11-25T10:12:42.519Z,986.22
2023-11-25T10:13:44.297Z,986.23
2023-11-25T10:14:45.846Z,986.27
2023-11-25T10:15:47.831Z,986.22
2023-11-25T10:16:49.307Z,986.28
2023-11-25T10:17:51.169Z,986.25
2023-11-25T10:18:52.752Z,986.25
2023-11-25T10:19:54.462Z,986.27
2023-11-25T10:20:56.195Z,986.24
2023-11-25T10:21:57.930Z,986.3
2023-11-25T10:22:59.787Z,986.3
2023-11-25T10:24:01.374Z,986.27
2023-11-25T10:25:03.097Z,986.24
2023-11-25T10:26:05.151Z,986.17
2023-11-25T10:27:06.572Z,986.2
2023-11-25T10:28:08.269Z,986.21
2023-11-25T10:29:10.102Z,986.15
2023-11-25T10:30:11.717Z,986.12
2023-11-25T10:31:13.457Z,986.1
2023-11-25T10:32:15.177Z,986.07
2023-11-25T10:33:16.907Z,986.12
2023-11-25T10:34:18.631Z,986.14
2023-11-25T10:35:20.355Z,986.07
2023-11-25T10:36:22.102Z,986.08
2023-11-25T10:37:23.819Z,986.04
2023-11-25T10:38:25.551Z,986.06
2023-11-25T10:39:27.260Z,986.03
2023-11-25T10:40:29.124Z,986.1
2023-11-25T10:41:30.853Z,986.01
2023-11-25T10:42:32.638Z,986.03
2023-11-25T10:43:34.369Z,986.05
2023-11-25T10:44:36.035Z,986.08
2023-11-25T10:45:37.632Z,986.04
2023-11-25T10:46:39.559Z,986.06
2023-11-25T10:47:41.098Z,986.07
2023-11-25T10:48:42.788Z,986.02
2023-11-25T10:49:44.647Z,986.09
2023-11-25T10:50:46.228Z,986.08
2023-11-25T10:51:47.966Z,986.03
2023-11-25T10:52:49.758Z,985.93
2023-11-25T10:53:51.418Z,985.92
2023-11-25T10:54:53.141Z,985.86
2023-11-25T10:55:54.935Z,985.9
2023-11-25T10:56:56.610Z,985.84
2023-11-25T10:57:58.296Z,985.9
2023-11-25T10:59:00.089Z,985.82
2023-11-25T11:00:01.812Z,985.76
2023-11-25T11:01:03.600Z,985.75
2023-11-25T11:02:05.479Z,985.71
2023-11-25T11:03:07.256Z,985.71
2023-11-25T11:04:08.754Z,985.69
2023-11-25T11:05:10.398Z,985.68
2023-11-25T11:06:12.158Z,985.67
2023-11-25T11:07:13.851Z,985.72
2023-11-25T11:08:15.601Z,985.63
2023-11-25T11:09:17.285Z,985.64
2023-11-25T11:10:19.133Z,985.64
2023-11-25T11:11:20.726Z,985.6
2023-11-25T11:12:22.460Z,985.68
2023-11-25T11:13:24.344Z,985.59
2023-11-25T11:14:25.955Z,985.49
2023-11-25T11:15:27.641Z,985.51
2023-11-25T11:16:29.420Z,985.5
2023-11-25T11:17:31.113Z,985.45
2023-11-25T11:18:32.992Z,985.44
2023-11-25T11:19:34.784Z,985.43
2023-11-25T11:20:36.271Z,985.42
2023-11-25T11:21:37.993Z,985.45
2023-11-25T11:22:39.813Z,985.42
2023-11-25T11:23:41.434Z,985.37
2023-11-25T11:24:43.166Z,985.38
2023-11-25T11:25:44.944Z,985.37
2023-11-25T11:26:46.598Z,985.33
2023-11-25T11:27:48.333Z,985.24
2023-11-25T11:28:50.150Z,985.27
2023-11-25T11:29:51.789Z,985.3
2023-11-25T11:30:53.528Z,985.26
2023-11-25T11:31:55.313Z,985.15
2023-11-25T11:32:57.006Z,985.16
2023-11-25T11:33:58.727Z,985.15
2023-11-25T11:35:00.449Z,985.11
2023-11-25T11:36:02.135Z,985.17
2023-11-25T11:37:03.939Z,985.2
2023-11-25T11:38:05.663Z,985.28
2023-11-25T11:39:07.337Z,985.24
2023-11-25T11:40:09.037Z,985.24
2023-11-25T11:41:10.786Z,985.23
2023-11-25T11:42:12.503Z,985.3
2023-11-25T11:43:14.285Z,985.27
2023-11-25T11:44:15.995Z,985.22
2023-11-25T11:45:17.681Z,985.26
2023-11-25T11:46:19.443Z,985.2
2023-11-25T11:47:21.163Z,985.25
2023-11-25T11:48:23.044Z,985.23
2023-11-25T11:49:24.597Z,985.2
2023-11-25T11:50:26.297Z,985.24
2023-11-25T11:51:28.019Z,985.2
2023-11-25T11:52:29.773Z,985.18
2023-11-25T11:53:31.502Z,985.22
2023-11-25T11:54:33.190Z,985.21
2023-11-25T11:55:35.016Z,985.22
2023-11-25T11:56:36.668Z,985.2
2023-11-25T11:57:38.626Z,985.2
2023-11-25T11:58:40.353Z,985.2
2023-11-25T11:59:42.018Z,985.21
2023-11-25T12:00:43.810Z,985.15
2023-11-25T12:01:45.382Z,985.18
2023-11-25T12:02:47.049Z,985.2
2023-11-25T12:03:48.840Z,985.18
2023-11-25T12:04:50.613Z,985.24
2023-11-25T12:05:52.291Z,985.2
2023-11-25T12:06:54.007Z,985.22
2023-11-25T12:07:55.863Z,985.2
2023-11-25T12:08:57.374Z,985.17
2023-11-25T12:09:59.108Z,985.21
2023-11-25T12:11:01.004Z,985.2
2023-11-25T12:12:02.605Z,985.16
2023-11-25T12:13:04.393Z,985.09
2023-11-25T12:14:06.005Z,985.12
2023-11-25T12:15:07.916Z,985.09
2023-11-25T12:16:09.503Z,985.06
2023-11-25T12:17:11.297Z,985.09
2023-11-25T12:18:12.913Z,985.02
2023-11-25T12:19:14.628Z,985.08
2023-11-25T12:20:16.365Z,985.02
2023-11-25T12:21:18.060Z,985.03
2023-11-25T12:22:19.825Z,985.02
2023-11-25T12:23:22.351Z,984.96
2023-11-25T12:24:22.399Z,985.01
2023-11-25T12:25:25.176Z,984.99
2023-11-25T12:26:26.902Z,985.04
2023-11-25T12:27:28.427Z,985
2023-11-25T12:28:30.284Z,985
2023-11-25T12:29:33.392Z,985.01
2023-11-25T12:30:33.750Z,985.03
2023-11-25T12:31:35.376Z,985.01
2023-11-25T12:32:37.204Z,984.96
2023-11-25T12:33:38.734Z,984.94
2023-11-25T12:34:40.560Z,984.9
2023-11-25T12:35:46.560Z,984.94
2023-11-25T12:36:49.122Z,984.95
2023-11-25T12:38:04.365Z,984.86
2023-11-25T12:38:52.602Z,984.87
2023-11-25T12:39:54.278Z,984.73
2023-11-25T12:40:56.026Z,984.89
2023-11-25T12:41:57.745Z,984.88
2023-11-25T12:42:59.454Z,984.87
2023-11-25T12:44:01.229Z,984.88
2023-11-25T12:45:02.870Z,984.86
2023-11-25T12:46:04.631Z,984.87
2023-11-25T12:47:06.388Z,984.9
2023-11-25T12:48:12.019Z,984.92
2023-11-25T12:49:10.009Z,984.92
2023-11-25T12:50:11.560Z,984.9
2023-11-25T12:51:13.260Z,984.83
2023-11-25T12:52:15.004Z,984.92
2023-11-25T12:53:16.702Z,984.81
2023-11-25T12:54:18.406Z,984.89
2023-11-25T12:55:20.240Z,984.87
2023-11-25T12:56:21.861Z,984.87
2023-11-25T12:57:23.649Z,984.77
2023-11-25T12:58:25.331Z,984.81
2023-11-25T12:59:27.046Z,984.86
2023-11-25T13:00:28.760Z,984.86
2023-11-25T13:01:30.646Z,984.86
2023-11-25T13:02:32.299Z,984.81
2023-11-25T13:03:34.222Z,984.84
2023-11-25T13:04:36.091Z,984.89
2023-11-25T13:05:37.392Z,984.81
2023-11-25T13:06:39.120Z,984.87
2023-11-25T13:07:40.855Z,984.83
2023-11-25T13:08:42.585Z,984.81
2023-11-25T13:09:44.302Z,984.82